createdAt,value
2022-09-20T00:05:28.184Z,1.27
2022-09-20T00:10:41.047Z,1.25
2022-09-20T00:15:59.954Z,0.88
2022-09-20T00:21:05.733Z,1.02
2022-09-20T00:26:10.896Z,1.15
2022-09-20T00:31:19.047Z,1.33
2022-09-20T00:36:26.590Z,0.73
2022-09-20T00:41:32.543Z,0.82
2022-09-20T00:46:41.853Z,0.68
2022-09-20T00:51:53.283Z,1.13
2022-09-20T00:57:01.881Z,1.55
2022-09-20T01:02:16.261Z,1.05
2022-09-20T01:07:25.123Z,1.00
2022-09-20T01:12:34.912Z,1.15
2022-09-20T01:17:44.575Z,0.73
2022-09-20T01:23:07.371Z,0.80
2022-09-20T01:28:17.093Z,0.82
2022-09-20T01:33:29.299Z,1.05
2022-09-20T01:38:43.543Z,0.95
2022-09-20T01:49:09.142Z,0.75
2022-09-20T01:54:25.754Z,1.05
2022-09-20T01:59:52.883Z,1.08
2022-09-20T02:05:32.065Z,0.73
2022-09-20T02:11:00.947Z,0.73
2022-09-20T02:16:25.734Z,0.90
2022-09-20T02:21:37.381Z,1.02
2022-09-20T02:26:46.149Z,0.77
2022-09-20T02:32:19.645Z,0.80
2022-09-20T02:37:43.195Z,0.70
2022-09-20T02:42:51.993Z,0.73
2022-09-20T02:48:03.968Z,0.80
2022-09-20T02:53:21.546Z,0.85
2022-09-20T02:58:33.993Z,1.33
2022-09-20T03:03:47.633Z,0.95
2022-09-20T03:09:00.535Z,1.30
2022-09-20T03:14:15.319Z,1.48
2022-09-20T03:19:35.881Z,1.00
2022-09-20T03:24:51.096Z,1.17
2022-09-20T03:30:09.057Z,1.25
2022-09-20T03:35:33.517Z,1.20
2022-09-20T03:41:15.114Z,1.25
2022-09-20T03:46:32.690Z,1.60
2022-09-20T03:51:46.493Z,1.02
2022-09-20T03:57:21.815Z,1.40
2022-09-20T04:02:42.135Z,0.88
2022-09-20T04:07:58.620Z,0.77
2022-09-20T04:13:15.271Z,1.40
2022-09-20T04:18:34.199Z,1.02
2022-09-20T04:23:49.003Z,1.60
2022-09-20T04:28:58.763Z,1.80
2022-09-20T04:34:04.276Z,1.33
2022-09-20T04:39:23.283Z,1.75
2022-09-20T04:44:58.271Z,1.60
2022-09-20T04:50:32.039Z,1.95
2022-09-20T04:56:14.957Z,1.23
2022-09-20T05:01:59.440Z,1.63
2022-09-20T05:07:49.030Z,1.60
2022-09-20T05:13:29.485Z,1.52
2022-09-20T05:19:10.553Z,2.05
2022-09-20T05:24:34.475Z,2.42
2022-09-20T05:29:52.979Z,1.77
2022-09-20T05:35:16.780Z,2.03
2022-09-20T05:40:52.279Z,1.88
2022-09-20T05:46:29.232Z,2.90
2022-09-20T05:51:43.443Z,2.00
2022-09-20T05:56:53.818Z,2.05
2022-09-20T06:02:13.550Z,1.40
2022-09-20T06:07:27.383Z,1.77
2022-09-20T06:12:43.163Z,1.65
2022-09-20T06:17:56.456Z,1.92
2022-09-20T06:23:03.418Z,1.30
2022-09-20T06:28:11.546Z,1.63
2022-09-20T06:33:20.676Z,1.25
2022-09-20T06:38:56.619Z,1.15
2022-09-20T06:44:05.926Z,1.55
2022-09-20T06:49:13.701Z,0.98
2022-09-20T06:54:21.091Z,0.63
2022-09-20T06:59:26.119Z,0.82
2022-09-20T07:04:34.387Z,0.95
2022-09-20T07:09:39.410Z,1.02
2022-09-20T07:14:44.697Z,1.17
2022-09-20T07:19:52.277Z,0.60
2022-09-20T07:24:59.158Z,0.60
2022-09-20T07:30:04.122Z,0.63
2022-09-20T07:35:12.616Z,0.63
2022-09-20T07:40:17.622Z,0.60
2022-09-20T07:45:22.732Z,0.50
2022-09-20T07:50:30.715Z,0.80
2022-09-20T08:28:34.604Z,0.35
2022-09-20T08:33:42.919Z,0.35
2022-09-20T08:44:59.043Z,0.52
2022-09-20T08:50:10.100Z,0.60
2022-09-20T08:55:20.105Z,0.30
2022-09-20T09:00:29.813Z,0.55
2022-09-20T09:05:37.323Z,0.40
2022-09-20T09:10:43.378Z,0.32
2022-09-20T09:15:54.707Z,0.52
2022-09-20T09:21:00.451Z,0.45
2022-09-20T09:26:10.215Z,0.38
2022-09-20T09:31:26.225Z,0.35
2022-09-20T09:36:33.872Z,0.25
2022-09-20T09:41:38.994Z,0.55
2022-09-20T09:46:46.749Z,0.43
2022-09-20T09:52:06.677Z,0.75
2022-09-20T09:57:24.135Z,0.30
2022-09-20T10:03:01.640Z,0.30
2022-09-20T10:08:18.270Z,0.43
2022-09-20T10:13:30.095Z,0.40
2022-09-20T10:18:45.850Z,0.38
2022-09-20T10:24:03.471Z,0.77
2022-09-20T10:29:15.917Z,0.70
2022-09-20T10:34:38.761Z,0.63
2022-09-20T10:39:44.182Z,0.70
2022-09-20T10:45:20.684Z,0.43
2022-09-20T10:50:43.862Z,0.47
2022-09-20T10:55:55.567Z,1.10
2022-09-20T11:01:04.763Z,0.40
2022-09-20T11:06:19.147Z,0.22
2022-09-20T11:11:26.961Z,0.30
2022-09-20T11:16:38.058Z,0.73
2022-09-20T11:21:49.851Z,0.40
2022-09-20T11:26:56.955Z,0.30
2022-09-20T11:37:12.674Z,0.52
2022-09-20T11:42:20.432Z,0.32
2022-09-20T11:47:52.746Z,0.35
2022-09-20T11:53:08.209Z,1.23
2022-09-20T11:58:16.135Z,0.22
2022-09-20T12:03:33.785Z,0.22
2022-09-20T12:08:43.923Z,1.02
2022-09-20T12:13:56.565Z,0.40
2022-09-20T12:19:08.099Z,0.30
2022-09-20T12:24:30.020Z,0.43
2022-09-20T12:30:13.500Z,0.43
2022-09-20T12:36:03.160Z,0.50
2022-09-20T12:41:27.875Z,0.40
2022-09-20T12:51:53.771Z,0.43
2022-09-20T12:57:20.916Z,0.43
2022-09-20T13:02:58.863Z,0.13
2022-09-20T13:08:06.453Z,5.45
2022-09-20T13:13:30.345Z,0.85
2022-09-20T13:18:36.624Z,0.70
2022-09-20T13:23:51.636Z,0.60
2022-09-20T13:29:00.517Z,0.60
2022-09-20T13:34:33.396Z,0.65
2022-09-20T13:39:39.489Z,0.30
2022-09-20T13:44:47.210Z,0.75
2022-09-20T13:49:52.841Z,0.47
2022-09-20T13:54:58.367Z,0.43
2022-09-20T14:00:07.914Z,0.50
2022-09-20T14:05:21.576Z,0.55
2022-09-20T14:33:43.427Z,0.20
2022-09-20T14:38:50.903Z,0.30
2022-09-20T14:43:58.423Z,0.65
2022-09-20T14:49:42.202Z,0.80
2022-09-20T14:55:02.043Z,0.50
2022-09-20T15:10:27.686Z,0.30
2022-09-20T15:15:36.119Z,0.22
2022-09-20T15:20:41.266Z,0.22
2022-09-20T15:25:50.782Z,0.30
2022-09-20T15:30:56.381Z,0.80
2022-09-20T15:36:02.230Z,0.88
2022-09-20T15:41:10.278Z,0.45
2022-09-20T15:46:24.711Z,0.77
2022-09-20T15:51:30.622Z,0.43
2022-09-20T15:56:40.476Z,0.35
2022-09-20T16:01:48.331Z,0.57
2022-09-20T16:06:53.539Z,0.57
2022-09-20T16:12:38.035Z,0.47
2022-09-20T16:18:33.837Z,0.80
2022-09-20T16:23:39.272Z,1.65
2022-09-20T16:28:51.776Z,1.45
2022-09-20T16:34:00.542Z,1.10
2022-09-20T16:39:06.422Z,0.85
2022-09-20T16:44:14.460Z,0.50
2022-09-20T16:49:19.819Z,1.13
2022-09-20T17:00:05.402Z,0.77
2022-09-20T17:05:17.383Z,0.70
2022-09-20T17:10:27.345Z,0.68
2022-09-20T17:15:36.017Z,0.73
2022-09-20T17:20:43.608Z,1.40
2022-09-20T17:30:56.650Z,1.85
2022-09-20T17:36:05.407Z,2.75
2022-09-20T17:41:12.841Z,2.05
2022-09-20T17:46:23.568Z,1.60
2022-09-20T17:51:30.365Z,1.88
2022-09-20T17:56:35.781Z,2.30
2022-09-20T18:01:43.529Z,2.17
2022-09-20T18:06:50.205Z,1.90
2022-09-20T18:11:56.862Z,2.38
2022-09-20T18:17:05.687Z,1.70
2022-09-20T18:22:10.842Z,1.33
2022-09-20T18:27:16.081Z,1.23
2022-09-20T18:32:30.209Z,1.40
2022-09-20T18:37:36.622Z,1.42
2022-09-20T18:42:42.333Z,1.17
2022-09-20T18:47:52.216Z,1.10
2022-09-20T18:52:57.483Z,2.00
2022-09-20T18:58:03.671Z,2.28
2022-09-20T19:03:17.831Z,1.95
2022-09-20T19:08:28.236Z,3.08
2022-09-20T19:13:40.084Z,3.38
2022-09-20T19:18:59.799Z,2.10
2022-09-20T19:24:19.518Z,1.88
2022-09-20T19:29:27.115Z,1.63
2022-09-20T19:34:35.985Z,2.00
2022-09-20T19:39:59.341Z,1.73
2022-09-20T19:45:10.601Z,1.25
2022-09-20T19:50:28.184Z,0.95
2022-09-20T19:55:35.144Z,1.25
2022-09-20T20:00:41.073Z,1.60
2022-09-20T20:05:54.285Z,2.00
2022-09-20T20:11:04.994Z,1.20
2022-09-20T20:16:15.431Z,1.42
2022-09-20T20:21:40.372Z,1.10
2022-09-20T20:26:48.599Z,1.50
2022-09-20T20:31:53.718Z,1.52
2022-09-20T20:37:05.881Z,1.75
2022-09-20T20:42:13.067Z,1.73
2022-09-20T20:47:18.141Z,1.73
2022-09-20T20:52:26.026Z,2.05
2022-09-20T20:57:32.295Z,1.85
2022-09-20T21:02:37.515Z,1.58
2022-09-20T21:07:48.292Z,2.40
2022-09-20T21:12:54.110Z,1.95
2022-09-20T21:17:59.512Z,1.73
2022-09-20T21:23:07.381Z,1.80
2022-09-20T21:28:12.582Z,2.20
2022-09-20T21:33:17.654Z,2.72
2022-09-20T21:38:25.684Z,2.67
2022-09-20T21:43:30.858Z,3.42
2022-09-20T21:48:35.975Z,4.32
2022-09-20T21:53:44.136Z,3.03
2022-09-20T21:58:49.647Z,2.17
2022-09-20T22:09:40.340Z,1.98
2022-09-20T22:20:50.342Z,1.80
2022-09-20T22:26:05.104Z,2.10
2022-09-20T22:32:00.325Z,2.42
2022-09-20T22:37:19.016Z,2.85
2022-09-20T22:42:37.642Z,2.30
2022-09-20T22:47:47.163Z,3.17
2022-09-20T22:52:52.623Z,2.72
2022-09-20T22:58:03.657Z,2.17
2022-09-20T23:03:08.839Z,2.70
2022-09-20T23:08:33.405Z,2.05
2022-09-20T23:13:43.981Z,2.10
2022-09-20T23:18:57.779Z,1.70
2022-09-20T23:24:04.104Z,2.13
2022-09-20T23:29:14.035Z,2.08
2022-09-20T23:34:19.515Z,2.72
2022-09-20T23:39:24.500Z,2.33
2022-09-20T23:44:32.212Z,2.03
2022-09-20T23:49:37.331Z,1.45
2022-09-20T23:54:42.645Z,1.27
2022-09-20T23:59:50.300Z,1.70
